sensor_id;sensor_type;location;lat;lon;timestamp;P1;durP1;ratioP1;P2;durP2;ratioP2
70301;SDS011;57706;56.326;43.882;2023-05-23T00:02:09;9.25;;;3.08;;
70301;SDS011;57706;56.326;43.882;2023-05-23T00:04:38;6.47;;;2.80;;
70301;SDS011;57706;56.326;43.882;2023-05-23T00:07:04;5.13;;;2.40;;
70301;SDS011;57706;56.326;43.882;2023-05-23T00:09:30;8.23;;;2.80;;
70301;SDS011;57706;56.326;43.882;2023-05-23T00:11:56;5.90;;;2.92;;
70301;SDS011;57706;56.326;43.882;2023-05-23T00:14:22;13.80;;;3.53;;
70301;SDS011;57706;56.326;43.882;2023-05-23T00:16:48;7.63;;;3.08;;
70301;SDS011;57706;56.326;43.882;2023-05-23T00:19:14;9.43;;;2.90;;
70301;SDS011;57706;56.326;43.882;2023-05-23T00:21:45;4.93;;;2.50;;
70301;SDS011;57706;56.326;43.882;2023-05-23T00:24:15;8.82;;;2.95;;
70301;SDS011;57706;56.326;43.882;2023-05-23T00:26:45;11.13;;;4.85;;
70301;SDS011;57706;56.326;43.882;2023-05-23T00:29:11;11.13;;;5.90;;
70301;SDS011;57706;56.326;43.882;2023-05-23T00:31:41;14.52;;;6.20;;
70301;SDS011;57706;56.326;43.882;2023-05-23T00:34:14;11.07;;;6.53;;
70301;SDS011;57706;56.326;43.882;2023-05-23T00:36:42;10.70;;;6.72;;
70301;SDS011;57706;56.326;43.882;2023-05-23T00:39:08;18.70;;;6.55;;
70301;SDS011;57706;56.326;43.882;2023-05-23T00:41:43;10.38;;;5.82;;
70301;SDS011;57706;56.326;43.882;2023-05-23T00:44:13;8.32;;;5.45;;
70301;SDS011;57706;56.326;43.882;2023-05-23T00:46:39;15.18;;;6.28;;
70301;SDS011;57706;56.326;43.882;2023-05-23T00:49:08;10.68;;;5.70;;
70301;SDS011;57706;56.326;43.882;2023-05-23T00:51:34;9.93;;;5.50;;
70301;SDS011;57706;56.326;43.882;2023-05-23T00:54:00;12.02;;;4.78;;
70301;SDS011;57706;56.326;43.882;2023-05-23T00:56:29;10.68;;;5.10;;
70301;SDS011;57706;56.326;43.882;2023-05-23T00:58:56;8.02;;;5.03;;
70301;SDS011;57706;56.326;43.882;2023-05-23T01:01:25;8.63;;;4.53;;
70301;SDS011;57706;56.326;43.882;2023-05-23T01:03:51;13.50;;;5.10;;
70301;SDS011;57706;56.326;43.882;2023-05-23T01:06:18;7.40;;;4.32;;
70301;SDS011;57706;56.326;43.882;2023-05-23T01:08:44;8.52;;;4.55;;
70301;SDS011;57706;56.326;43.882;2023-05-23T01:11:11;7.32;;;4.47;;
70301;SDS011;57706;56.326;43.882;2023-05-23T01:13:58;5.63;;;3.72;;
70301;SDS011;57706;56.326;43.882;2023-05-23T01:16:44;7.72;;;4.05;;
70301;SDS011;57706;56.326;43.882;2023-05-23T01:19:33;10.52;;;4.10;;
70301;SDS011;57706;56.326;43.882;2023-05-23T01:22:10;7.63;;;3.03;;
70301;SDS011;57706;56.326;43.882;2023-05-23T01:24:46;7.35;;;4.10;;
70301;SDS011;57706;56.326;43.882;2023-05-23T01:30:16;7.40;;;4.07;;
70301;SDS011;57706;56.326;43.882;2023-05-23T01:32:49;5.93;;;3.42;;
70301;SDS011;57706;56.326;43.882;2023-05-23T01:35:17;9.55;;;3.70;;
70301;SDS011;57706;56.326;43.882;2023-05-23T01:37:54;7.05;;;3.10;;
70301;SDS011;57706;56.326;43.882;2023-05-23T01:40:22;9.90;;;4.28;;
70301;SDS011;57706;56.326;43.882;2023-05-23T01:42:50;6.18;;;3.80;;
70301;SDS011;57706;56.326;43.882;2023-05-23T01:45:17;9.98;;;3.95;;
70301;SDS011;57706;56.326;43.882;2023-05-23T01:47:43;8.52;;;3.70;;
70301;SDS011;57706;56.326;43.882;2023-05-23T01:50:12;10.82;;;3.85;;
70301;SDS011;57706;56.326;43.882;2023-05-23T01:52:39;7.20;;;3.83;;
70301;SDS011;57706;56.326;43.882;2023-05-23T01:55:05;8.18;;;3.70;;
70301;SDS011;57706;56.326;43.882;2023-05-23T01:57:37;6.13;;;3.97;;
70301;SDS011;57706;56.326;43.882;2023-05-23T02:00:04;10.55;;;3.33;;
70301;SDS011;57706;56.326;43.882;2023-05-23T02:02:39;9.27;;;3.38;;
70301;SDS011;57706;56.326;43.882;2023-05-23T02:05:06;10.70;;;3.95;;
70301;SDS011;57706;56.326;43.882;2023-05-23T02:07:32;9.52;;;3.58;;
70301;SDS011;57706;56.326;43.882;2023-05-23T02:09:58;12.13;;;3.63;;
70301;SDS011;57706;56.326;43.882;2023-05-23T02:12:23;8.18;;;4.15;;
70301;SDS011;57706;56.326;43.882;2023-05-23T02:14:49;10.18;;;3.38;;
70301;SDS011;57706;56.326;43.882;2023-05-23T02:17:18;10.60;;;4.00;;
70301;SDS011;57706;56.326;43.882;2023-05-23T02:19:47;10.27;;;3.75;;
70301;SDS011;57706;56.326;43.882;2023-05-23T02:22:13;6.47;;;3.50;;
70301;SDS011;57706;56.326;43.882;2023-05-23T02:24:39;6.18;;;3.30;;
70301;SDS011;57706;56.326;43.882;2023-05-23T02:27:05;11.38;;;3.40;;
70301;SDS011;57706;56.326;43.882;2023-05-23T02:29:31;7.90;;;3.33;;
70301;SDS011;57706;56.326;43.882;2023-05-23T02:31:58;7.35;;;3.47;;
70301;SDS011;57706;56.326;43.882;2023-05-23T02:34:24;14.50;;;3.30;;
70301;SDS011;57706;56.326;43.882;2023-05-23T02:36:50;6.07;;;3.15;;
70301;SDS011;57706;56.326;43.882;2023-05-23T02:39:16;3.60;;;2.70;;
70301;SDS011;57706;56.326;43.882;2023-05-23T02:41:44;8.82;;;3.33;;
70301;SDS011;57706;56.326;43.882;2023-05-23T02:44:10;8.15;;;3.08;;
70301;SDS011;57706;56.326;43.882;2023-05-23T02:46:36;10.05;;;3.33;;
70301;SDS011;57706;56.326;43.882;2023-05-23T02:49:03;8.98;;;3.60;;
70301;SDS011;57706;56.326;43.882;2023-05-23T02:51:28;8.25;;;3.60;;
70301;SDS011;57706;56.326;43.882;2023-05-23T02:53:55;12.80;;;3.30;;
70301;SDS011;57706;56.326;43.882;2023-05-23T02:56:21;14.60;;;3.60;;
70301;SDS011;57706;56.326;43.882;2023-05-23T02:58:47;19.85;;;3.90;;
70301;SDS011;57706;56.326;43.882;2023-05-23T03:01:13;12.38;;;3.45;;
70301;SDS011;57706;56.326;43.882;2023-05-23T03:03:39;12.68;;;3.58;;
70301;SDS011;57706;56.326;43.882;2023-05-23T03:06:06;13.07;;;4.30;;
70301;SDS011;57706;56.326;43.882;2023-05-23T03:08:35;11.27;;;3.80;;
70301;SDS011;57706;56.326;43.882;2023-05-23T03:11:01;7.13;;;3.60;;
70301;SDS011;57706;56.326;43.882;2023-05-23T03:13:27;7.32;;;2.97;;
70301;SDS011;57706;56.326;43.882;2023-05-23T03:15:53;8.85;;;3.28;;
70301;SDS011;57706;56.326;43.882;2023-05-23T03:18:19;11.65;;;3.13;;
70301;SDS011;57706;56.326;43.882;2023-05-23T03:20:45;11.88;;;3.38;;
70301;SDS011;57706;56.326;43.882;2023-05-23T03:23:11;10.05;;;3.40;;
70301;SDS011;57706;56.326;43.882;2023-05-23T03:25:37;9.90;;;3.28;;
70301;SDS011;57706;56.326;43.882;2023-05-23T03:28:03;9.35;;;3.22;;
70301;SDS011;57706;56.326;43.882;2023-05-23T03:30:29;9.35;;;3.00;;
70301;SDS011;57706;56.326;43.882;2023-05-23T03:32:55;9.45;;;3.22;;
70301;SDS011;57706;56.326;43.882;2023-05-23T03:35:21;7.78;;;3.20;;
70301;SDS011;57706;56.326;43.882;2023-05-23T03:37:47;5.40;;;3.22;;
70301;SDS011;57706;56.326;43.882;2023-05-23T03:40:13;6.80;;;3.10;;
70301;SDS011;57706;56.326;43.882;2023-05-23T03:42:39;10.02;;;2.80;;
70301;SDS011;57706;56.326;43.882;2023-05-23T03:45:06;6.50;;;3.10;;
70301;SDS011;57706;56.326;43.882;2023-05-23T03:47:32;8.63;;;3.22;;
70301;SDS011;57706;56.326;43.882;2023-05-23T03:49:58;8.05;;;3.17;;
70301;SDS011;57706;56.326;43.882;2023-05-23T03:52:25;6.65;;;2.88;;
70301;SDS011;57706;56.326;43.882;2023-05-23T03:54:51;9.77;;;2.72;;
70301;SDS011;57706;56.326;43.882;2023-05-23T03:57:18;13.25;;;3.35;;
70301;SDS011;57706;56.326;43.882;2023-05-23T03:59:43;6.72;;;3.35;;
70301;SDS011;57706;56.326;43.882;2023-05-23T04:02:11;7.35;;;2.55;;
70301;SDS011;57706;56.326;43.882;2023-05-23T04:04:37;9.57;;;3.47;;
70301;SDS011;57706;56.326;43.882;2023-05-23T04:07:04;6.82;;;3.10;;
70301;SDS011;57706;56.326;43.882;2023-05-23T04:09:31;13.98;;;3.42;;
70301;SDS011;57706;56.326;43.882;2023-05-23T04:11:58;12.60;;;3.70;;
70301;SDS011;57706;56.326;43.882;2023-05-23T04:14:25;15.25;;;3.53;;
70301;SDS011;57706;56.326;43.882;2023-05-23T04:16:52;7.80;;;3.33;;
70301;SDS011;57706;56.326;43.882;2023-05-23T04:19:18;11.13;;;3.28;;
70301;SDS011;57706;56.326;43.882;2023-05-23T04:21:44;8.98;;;3.10;;
70301;SDS011;57706;56.326;43.882;2023-05-23T04:24:13;16.38;;;3.58;;
70301;SDS011;57706;56.326;43.882;2023-05-23T04:26:39;21.58;;;3.70;;
70301;SDS011;57706;56.326;43.882;2023-05-23T04:29:05;6.80;;;3.40;;
70301;SDS011;57706;56.326;43.882;2023-05-23T04:31:31;12.85;;;3.63;;
70301;SDS011;57706;56.326;43.882;2023-05-23T04:34:00;11.48;;;3.63;;
70301;SDS011;57706;56.326;43.882;2023-05-23T04:36:27;11.63;;;3.95;;
70301;SDS011;57706;56.326;43.882;2023-05-23T04:38:54;8.02;;;3.25;;
70301;SDS011;57706;56.326;43.882;2023-05-23T04:41:20;11.88;;;3.40;;
70301;SDS011;57706;56.326;43.882;2023-05-23T04:44:24;11.65;;;3.58;;
70301;SDS011;57706;56.326;43.882;2023-05-23T04:47:08;8.18;;;3.30;;
70301;SDS011;57706;56.326;43.882;2023-05-23T04:49:51;9.35;;;2.70;;
70301;SDS011;57706;56.326;43.882;2023-05-23T04:52:18;7.80;;;3.33;;
70301;SDS011;57706;56.326;43.882;2023-05-23T04:54:44;8.77;;;2.88;;
70301;SDS011;57706;56.326;43.882;2023-05-23T04:57:11;9.98;;;3.28;;
70301;SDS011;57706;56.326;43.882;2023-05-23T04:59:37;10.57;;;3.00;;
70301;SDS011;57706;56.326;43.882;2023-05-23T05:02:03;7.03;;;3.05;;
70301;SDS011;57706;56.326;43.882;2023-05-23T05:04:31;11.27;;;3.03;;
70301;SDS011;57706;56.326;43.882;2023-05-23T05:06:56;14.35;;;2.90;;
70301;SDS011;57706;56.326;43.882;2023-05-23T05:09:22;9.13;;;3.60;;
70301;SDS011;57706;56.326;43.882;2023-05-23T05:11:49;9.70;;;3.17;;
70301;SDS011;57706;56.326;43.882;2023-05-23T05:14:15;10.95;;;3.38;;
70301;SDS011;57706;56.326;43.882;2023-05-23T05:16:42;15.38;;;3.08;;
70301;SDS011;57706;56.326;43.882;2023-05-23T05:19:10;14.98;;;3.78;;
70301;SDS011;57706;56.326;43.882;2023-05-23T05:21:36;4.95;;;3.10;;
70301;SDS011;57706;56.326;43.882;2023-05-23T05:24:02;10.32;;;2.95;;
70301;SDS011;57706;56.326;43.882;2023-05-23T05:26:28;5.97;;;2.85;;
70301;SDS011;57706;56.326;43.882;2023-05-23T05:28:54;7.47;;;3.10;;
70301;SDS011;57706;56.326;43.882;2023-05-23T05:31:21;15.27;;;3.55;;
70301;SDS011;57706;56.326;43.882;2023-05-23T05:33:47;5.93;;;3.60;;
70301;SDS011;57706;56.326;43.882;2023-05-23T05:36:15;7.07;;;3.03;;
70301;SDS011;57706;56.326;43.882;2023-05-23T05:38:42;17.15;;;3.55;;
70301;SDS011;57706;56.326;43.882;2023-05-23T05:41:09;8.35;;;3.20;;
70301;SDS011;57706;56.326;43.882;2023-05-23T05:43:40;10.25;;;3.03;;
70301;SDS011;57706;56.326;43.882;2023-05-23T05:46:07;9.77;;;3.40;;
70301;SDS011;57706;56.326;43.882;2023-05-23T05:48:33;13.68;;;3.53;;
70301;SDS011;57706;56.326;43.882;2023-05-23T05:53:32;13.02;;;3.47;;
70301;SDS011;57706;56.326;43.882;2023-05-23T05:55:58;12.40;;;3.40;;
70301;SDS011;57706;56.326;43.882;2023-05-23T05:58:24;10.80;;;3.08;;
70301;SDS011;57706;56.326;43.882;2023-05-23T06:00:55;9.60;;;3.13;;
70301;SDS011;57706;56.326;43.882;2023-05-23T06:03:20;17.33;;;3.25;;
70301;SDS011;57706;56.326;43.882;2023-05-23T06:05:52;13.45;;;3.13;;
70301;SDS011;57706;56.326;43.882;2023-05-23T06:08:18;13.63;;;3.22;;
70301;SDS011;57706;56.326;43.882;2023-05-23T06:10:44;13.50;;;3.60;;
70301;SDS011;57706;56.326;43.882;2023-05-23T06:13:10;7.88;;;3.15;;
70301;SDS011;57706;56.326;43.882;2023-05-23T06:15:37;14.55;;;3.22;;
70301;SDS011;57706;56.326;43.882;2023-05-23T06:18:03;16.70;;;3.53;;
70301;SDS011;57706;56.326;43.882;2023-05-23T06:20:30;10.95;;;3.30;;
70301;SDS011;57706;56.326;43.882;2023-05-23T06:22:58;10.52;;;3.40;;
70301;SDS011;57706;56.326;43.882;2023-05-23T06:25:25;15.75;;;3.25;;
70301;SDS011;57706;56.326;43.882;2023-05-23T06:27:51;13.70;;;3.30;;
70301;SDS011;57706;56.326;43.882;2023-05-23T06:30:17;6.88;;;2.95;;
70301;SDS011;57706;56.326;43.882;2023-05-23T06:32:44;9.60;;;3.20;;
70301;SDS011;57706;56.326;43.882;2023-05-23T06:35:10;9.93;;;4.22;;
70301;SDS011;57706;56.326;43.882;2023-05-23T06:37:36;14.15;;;4.20;;
70301;SDS011;57706;56.326;43.882;2023-05-23T06:40:01;12.75;;;3.40;;
70301;SDS011;57706;56.326;43.882;2023-05-23T06:42:30;13.88;;;4.22;;
70301;SDS011;57706;56.326;43.882;2023-05-23T06:45:09;14.60;;;4.03;;
70301;SDS011;57706;56.326;43.882;2023-05-23T06:47:36;14.73;;;4.40;;
70301;SDS011;57706;56.326;43.882;2023-05-23T06:50:02;9.70;;;4.47;;
70301;SDS011;57706;56.326;43.882;2023-05-23T06:52:30;11.32;;;4.43;;
70301;SDS011;57706;56.326;43.882;2023-05-23T06:55:06;18.73;;;4.63;;
70301;SDS011;57706;56.326;43.882;2023-05-23T06:57:33;14.10;;;4.72;;
70301;SDS011;57706;56.326;43.882;2023-05-23T06:59:59;10.23;;;4.43;;
70301;SDS011;57706;56.326;43.882;2023-05-23T07:02:24;14.73;;;4.18;;
70301;SDS011;57706;56.326;43.882;2023-05-23T07:04:50;15.55;;;4.63;;
70301;SDS011;57706;56.326;43.882;2023-05-23T07:07:35;12.98;;;4.70;;
70301;SDS011;57706;56.326;43.882;2023-05-23T07:10:01;11.52;;;4.18;;
70301;SDS011;57706;56.326;43.882;2023-05-23T07:12:27;11.88;;;4.50;;
70301;SDS011;57706;56.326;43.882;2023-05-23T07:14:53;13.40;;;4.35;;
70301;SDS011;57706;56.326;43.882;2023-05-23T07:17:19;14.32;;;4.40;;
70301;SDS011;57706;56.326;43.882;2023-05-23T07:19:46;13.50;;;4.38;;
70301;SDS011;57706;56.326;43.882;2023-05-23T07:22:12;12.45;;;4.10;;
70301;SDS011;57706;56.326;43.882;2023-05-23T07:24:40;12.43;;;4.35;;
70301;SDS011;57706;56.326;43.882;2023-05-23T07:27:06;10.38;;;3.95;;
70301;SDS011;57706;56.326;43.882;2023-05-23T07:29:34;11.98;;;4.28;;
70301;SDS011;57706;56.326;43.882;2023-05-23T07:32:00;20.88;;;5.63;;
70301;SDS011;57706;56.326;43.882;2023-05-23T07:34:27;13.00;;;4.60;;
70301;SDS011;57706;56.326;43.882;2023-05-23T07:36:55;12.82;;;4.55;;
70301;SDS011;57706;56.326;43.882;2023-05-23T07:39:23;18.42;;;4.82;;
70301;SDS011;57706;56.326;43.882;2023-05-23T07:41:51;14.23;;;4.68;;
70301;SDS011;57706;56.326;43.882;2023-05-23T07:44:18;19.48;;;4.82;;
70301;SDS011;57706;56.326;43.882;2023-05-23T07:46:44;18.33;;;4.60;;
70301;SDS011;57706;56.326;43.882;2023-05-23T07:49:10;10.95;;;4.53;;
70301;SDS011;57706;56.326;43.882;2023-05-23T07:51:36;14.65;;;4.60;;
70301;SDS011;57706;56.326;43.882;2023-05-23T07:54:04;10.07;;;4.38;;
70301;SDS011;57706;56.326;43.882;2023-05-23T07:56:30;10.85;;;4.93;;
70301;SDS011;57706;56.326;43.882;2023-05-23T07:58:56;14.43;;;5.03;;
70301;SDS011;57706;56.326;43.882;2023-05-23T08:01:22;16.63;;;4.60;;
70301;SDS011;57706;56.326;43.882;2023-05-23T08:04:00;20.17;;;5.03;;
70301;SDS011;57706;56.326;43.882;2023-05-23T08:06:46;9.43;;;3.83;;
70301;SDS011;57706;56.326;43.882;2023-05-23T08:09:13;8.63;;;4.47;;
70301;SDS011;57706;56.326;43.882;2023-05-23T08:11:46;11.25;;;4.90;;
70301;SDS011;57706;56.326;43.882;2023-05-23T08:14:13;12.95;;;4.25;;
70301;SDS011;57706;56.326;43.882;2023-05-23T08:17:02;14.85;;;4.43;;
70301;SDS011;57706;56.326;43.882;2023-05-23T08:19:29;16.52;;;4.80;;
70301;SDS011;57706;56.326;43.882;2023-05-23T08:21:55;16.73;;;5.05;;
70301;SDS011;57706;56.326;43.882;2023-05-23T08:24:21;11.35;;;4.72;;
70301;SDS011;57706;56.326;43.882;2023-05-23T08:26:48;13.77;;;5.07;;
70301;SDS011;57706;56.326;43.882;2023-05-23T08:29:14;11.40;;;5.07;;
70301;SDS011;57706;56.326;43.882;2023-05-23T08:31:41;18.23;;;5.00;;
70301;SDS011;57706;56.326;43.882;2023-05-23T08:34:09;13.02;;;5.53;;
70301;SDS011;57706;56.326;43.882;2023-05-23T08:36:37;11.82;;;5.10;;
70301;SDS011;57706;56.326;43.882;2023-05-23T08:39:07;19.63;;;5.78;;
70301;SDS011;57706;56.326;43.882;2023-05-23T08:41:39;11.25;;;4.60;;
70301;SDS011;57706;56.326;43.882;2023-05-23T08:44:09;14.05;;;5.55;;
70301;SDS011;57706;56.326;43.882;2023-05-23T08:46:44;14.98;;;6.75;;
70301;SDS011;57706;56.326;43.882;2023-05-23T08:49:15;18.85;;;7.32;;
70301;SDS011;57706;56.326;43.882;2023-05-23T08:51:43;15.68;;;7.75;;
70301;SDS011;57706;56.326;43.882;2023-05-23T08:54:15;19.02;;;7.20;;
70301;SDS011;57706;56.326;43.882;2023-05-23T08:56:42;19.65;;;7.20;;
70301;SDS011;57706;56.326;43.882;2023-05-23T08:59:08;15.00;;;8.65;;
70301;SDS011;57706;56.326;43.882;2023-05-23T09:01:37;20.30;;;9.13;;
70301;SDS011;57706;56.326;43.882;2023-05-23T09:04:07;25.55;;;10.82;;
70301;SDS011;57706;56.326;43.882;2023-05-23T09:06:43;22.42;;;9.85;;
70301;SDS011;57706;56.326;43.882;2023-05-23T09:09:09;23.75;;;10.00;;
70301;SDS011;57706;56.326;43.882;2023-05-23T09:11:36;25.33;;;9.55;;
70301;SDS011;57706;56.326;43.882;2023-05-23T09:14:02;21.20;;;8.75;;
70301;SDS011;57706;56.326;43.882;2023-05-23T09:16:31;16.75;;;8.80;;
70301;SDS011;57706;56.326;43.882;2023-05-23T09:19:13;19.48;;;8.60;;
70301;SDS011;57706;56.326;43.882;2023-05-23T09:21:44;19.45;;;10.10;;
70301;SDS011;57706;56.326;43.882;2023-05-23T09:24:15;20.13;;;10.23;;
70301;SDS011;57706;56.326;43.882;2023-05-23T09:26:42;30.67;;;10.68;;
70301;SDS011;57706;56.326;43.882;2023-05-23T09:29:12;26.75;;;10.48;;
70301;SDS011;57706;56.326;43.882;2023-05-23T09:31:41;19.45;;;9.77;;
70301;SDS011;57706;56.326;43.882;2023-05-23T09:34:08;23.20;;;10.82;;
70301;SDS011;57706;56.326;43.882;2023-05-23T09:36:35;23.98;;;10.85;;
70301;SDS011;57706;56.326;43.882;2023-05-23T09:39:09;25.20;;;10.32;;
70301;SDS011;57706;56.326;43.882;2023-05-23T09:41:37;17.40;;;10.45;;
70301;SDS011;57706;56.326;43.882;2023-05-23T09:44:09;20.33;;;9.40;;
70301;SDS011;57706;56.326;43.882;2023-05-23T09:46:35;18.33;;;10.10;;
70301;SDS011;57706;56.326;43.882;2023-05-23T09:49:14;19.25;;;9.13;;
70301;SDS011;57706;56.326;43.882;2023-05-23T09:51:43;18.23;;;8.90;;
70301;SDS011;57706;56.326;43.882;2023-05-23T09:54:21;21.02;;;8.52;;
70301;SDS011;57706;56.326;43.882;2023-05-23T09:56:46;16.38;;;8.88;;
70301;SDS011;57706;56.326;43.882;2023-05-23T09:59:14;21.30;;;8.98;;
70301;SDS011;57706;56.326;43.882;2023-05-23T10:01:44;35.08;;;8.77;;
70301;SDS011;57706;56.326;43.882;2023-05-23T10:04:13;36.58;;;9.55;;
70301;SDS011;57706;56.326;43.882;2023-05-23T10:06:47;19.20;;;8.40;;
70301;SDS011;57706;56.326;43.882;2023-05-23T10:09:18;22.40;;;8.93;;
70301;SDS011;57706;56.326;43.882;2023-05-23T10:14:18;14.45;;;9.40;;
70301;SDS011;57706;56.326;43.882;2023-05-23T10:17:02;16.27;;;9.38;;
70301;SDS011;57706;56.326;43.882;2023-05-23T10:19:44;23.20;;;9.43;;
70301;SDS011;57706;56.326;43.882;2023-05-23T10:22:15;20.40;;;9.77;;
70301;SDS011;57706;56.326;43.882;2023-05-23T10:24:43;26.52;;;9.80;;
70301;SDS011;57706;56.326;43.882;2023-05-23T10:27:09;25.10;;;9.18;;
70301;SDS011;57706;56.326;43.882;2023-05-23T10:29:36;20.65;;;8.63;;
70301;SDS011;57706;56.326;43.882;2023-05-23T10:32:02;19.67;;;9.63;;
70301;SDS011;57706;56.326;43.882;2023-05-23T10:37:16;16.42;;;8.25;;
70301;SDS011;57706;56.326;43.882;2023-05-23T10:42:20;12.90;;;8.40;;
70301;SDS011;57706;56.326;43.882;2023-05-23T10:47:41;14.10;;;8.70;;
70301;SDS011;57706;56.326;43.882;2023-05-23T10:50:11;16.77;;;9.68;;
70301;SDS011;57706;56.326;43.882;2023-05-23T10:52:38;20.40;;;10.32;;
70301;SDS011;57706;56.326;43.882;2023-05-23T10:55:11;15.75;;;9.13;;
70301;SDS011;57706;56.326;43.882;2023-05-23T10:57:39;19.10;;;9.82;;
70301;SDS011;57706;56.326;43.882;2023-05-23T11:00:14;17.92;;;8.98;;
70301;SDS011;57706;56.326;43.882;2023-05-23T11:02:53;18.33;;;9.85;;
70301;SDS011;57706;56.326;43.882;2023-05-23T11:05:26;20.20;;;10.15;;
70301;SDS011;57706;56.326;43.882;2023-05-23T11:13:21;30.48;;;10.13;;
70301;SDS011;57706;56.326;43.882;2023-05-23T11:15:47;22.85;;;9.40;;
70301;SDS011;57706;56.326;43.882;2023-05-23T11:18:21;18.08;;;9.60;;
70301;SDS011;57706;56.326;43.882;2023-05-23T11:20:51;22.98;;;9.88;;
70301;SDS011;57706;56.326;43.882;2023-05-23T11:23:18;23.98;;;9.05;;
70301;SDS011;57706;56.326;43.882;2023-05-23T11:25:50;27.10;;;9.35;;
70301;SDS011;57706;56.326;43.882;2023-05-23T11:28:18;18.10;;;8.40;;
70301;SDS011;57706;56.326;43.882;2023-05-23T11:30:47;16.35;;;8.02;;
70301;SDS011;57706;56.326;43.882;2023-05-23T11:33:14;20.48;;;8.10;;
70301;SDS011;57706;56.326;43.882;2023-05-23T11:35:42;14.32;;;7.35;;
70301;SDS011;57706;56.326;43.882;2023-05-23T11:38:12;15.93;;;7.78;;
70301;SDS011;57706;56.326;43.882;2023-05-23T11:40:40;15.40;;;7.65;;
70301;SDS011;57706;56.326;43.882;2023-05-23T11:43:12;14.38;;;6.80;;
70301;SDS011;57706;56.326;43.882;2023-05-23T11:45:40;20.75;;;8.07;;
70301;SDS011;57706;56.326;43.882;2023-05-23T11:48:10;19.83;;;7.47;;
70301;SDS011;57706;56.326;43.882;2023-05-23T11:53:19;13.82;;;5.53;;
70301;SDS011;57706;56.326;43.882;2023-05-23T11:55:50;15.30;;;5.10;;
70301;SDS011;57706;56.326;43.882;2023-05-23T11:58:19;10.68;;;4.38;;
70301;SDS011;57706;56.326;43.882;2023-05-23T12:00:46;9.80;;;4.70;;
70301;SDS011;57706;56.326;43.882;2023-05-23T12:03:11;30.65;;;5.38;;
70301;SDS011;57706;56.326;43.882;2023-05-23T12:05:37;13.55;;;4.75;;
70301;SDS011;57706;56.326;43.882;2023-05-23T12:08:03;10.60;;;4.43;;
70301;SDS011;57706;56.326;43.882;2023-05-23T12:10:30;20.25;;;4.82;;
70301;SDS011;57706;56.326;43.882;2023-05-23T12:12:56;10.68;;;4.95;;
70301;SDS011;57706;56.326;43.882;2023-05-23T12:15:25;10.60;;;4.63;;
70301;SDS011;57706;56.326;43.882;2023-05-23T12:17:54;25.38;;;5.75;;
70301;SDS011;57706;56.326;43.882;2023-05-23T12:20:21;10.32;;;4.10;;
70301;SDS011;57706;56.326;43.882;2023-05-23T12:25:18;17.10;;;4.90;;
70301;SDS011;57706;56.326;43.882;2023-05-23T12:27:44;10.40;;;4.57;;
70301;SDS011;57706;56.326;43.882;2023-05-23T12:30:13;11.57;;;4.30;;
70301;SDS011;57706;56.326;43.882;2023-05-23T12:32:44;27.77;;;4.97;;
70301;SDS011;57706;56.326;43.882;2023-05-23T12:35:12;11.20;;;4.57;;
70301;SDS011;57706;56.326;43.882;2023-05-23T12:37:45;13.75;;;4.72;;
70301;SDS011;57706;56.326;43.882;2023-05-23T12:40:12;14.93;;;4.60;;
70301;SDS011;57706;56.326;43.882;2023-05-23T12:42:46;8.25;;;5.05;;
70301;SDS011;57706;56.326;43.882;2023-05-23T12:45:21;15.52;;;5.10;;
70301;SDS011;57706;56.326;43.882;2023-05-23T12:47:48;9.25;;;4.75;;
70301;SDS011;57706;56.326;43.882;2023-05-23T12:50:15;20.63;;;4.78;;
70301;SDS011;57706;56.326;43.882;2023-05-23T12:52:41;11.98;;;4.65;;
70301;SDS011;57706;56.326;43.882;2023-05-23T12:55:07;11.63;;;5.18;;
70301;SDS011;57706;56.326;43.882;2023-05-23T12:57:34;13.80;;;5.40;;
70301;SDS011;57706;56.326;43.882;2023-05-23T13:00:00;11.98;;;4.95;;
70301;SDS011;57706;56.326;43.882;2023-05-23T13:02:30;8.20;;;5.25;;
70301;SDS011;57706;56.326;43.882;2023-05-23T13:04:57;11.35;;;4.18;;
70301;SDS011;57706;56.326;43.882;2023-05-23T13:07:22;13.48;;;4.57;;
70301;SDS011;57706;56.326;43.882;2023-05-23T13:09:48;5.90;;;4.35;;
70301;SDS011;57706;56.326;43.882;2023-05-23T13:12:14;15.02;;;4.78;;
70301;SDS011;57706;56.326;43.882;2023-05-23T13:14:41;20.73;;;5.25;;
70301;SDS011;57706;56.326;43.882;2023-05-23T13:17:07;10.32;;;5.22;;
70301;SDS011;57706;56.326;43.882;2023-05-23T13:19:32;11.73;;;4.80;;
70301;SDS011;57706;56.326;43.882;2023-05-23T13:21:58;20.02;;;5.28;;
70301;SDS011;57706;56.326;43.882;2023-05-23T13:24:25;11.65;;;5.28;;
70301;SDS011;57706;56.326;43.882;2023-05-23T13:26:51;17.23;;;6.10;;
70301;SDS011;57706;56.326;43.882;2023-05-23T13:29:18;12.05;;;5.18;;
70301;SDS011;57706;56.326;43.882;2023-05-23T13:31:44;19.05;;;6.28;;
70301;SDS011;57706;56.326;43.882;2023-05-23T13:34:09;8.10;;;5.47;;
70301;SDS011;57706;56.326;43.882;2023-05-23T13:36:35;13.25;;;5.32;;
70301;SDS011;57706;56.326;43.882;2023-05-23T13:39:01;12.13;;;5.35;;
70301;SDS011;57706;56.326;43.882;2023-05-23T13:41:28;10.43;;;4.88;;
70301;SDS011;57706;56.326;43.882;2023-05-23T13:43:54;15.50;;;5.63;;
70301;SDS011;57706;56.326;43.882;2023-05-23T13:46:20;14.52;;;5.00;;
70301;SDS011;57706;56.326;43.882;2023-05-23T13:48:46;14.00;;;5.07;;
70301;SDS011;57706;56.326;43.882;2023-05-23T13:51:12;9.18;;;5.00;;
70301;SDS011;57706;56.326;43.882;2023-05-23T13:53:38;15.40;;;5.40;;
70301;SDS011;57706;56.326;43.882;2023-05-23T13:56:04;16.00;;;4.70;;
70301;SDS011;57706;56.326;43.882;2023-05-23T13:58:30;10.98;;;4.53;;
70301;SDS011;57706;56.326;43.882;2023-05-23T14:00:56;15.57;;;4.93;;
70301;SDS011;57706;56.326;43.882;2023-05-23T14:03:22;17.48;;;4.85;;
70301;SDS011;57706;56.326;43.882;2023-05-23T14:05:49;10.93;;;4.43;;
70301;SDS011;57706;56.326;43.882;2023-05-23T14:08:15;8.07;;;4.45;;
70301;SDS011;57706;56.326;43.882;2023-05-23T14:10:41;16.08;;;5.00;;
70301;SDS011;57706;56.326;43.882;2023-05-23T14:13:07;10.63;;;5.45;;
70301;SDS011;57706;56.326;43.882;2023-05-23T14:15:33;9.98;;;4.53;;
70301;SDS011;57706;56.326;43.882;2023-05-23T14:18:00;7.28;;;4.70;;
70301;SDS011;57706;56.326;43.882;2023-05-23T14:20:26;6.65;;;4.43;;
70301;SDS011;57706;56.326;43.882;2023-05-23T14:22:52;15.32;;;5.40;;
70301;SDS011;57706;56.326;43.882;2023-05-23T14:25:18;13.65;;;4.75;;
70301;SDS011;57706;56.326;43.882;2023-05-23T14:27:43;11.98;;;4.43;;
70301;SDS011;57706;56.326;43.882;2023-05-23T14:30:09;12.70;;;4.47;;
70301;SDS011;57706;56.326;43.882;2023-05-23T14:32:35;15.02;;;4.72;;
70301;SDS011;57706;56.326;43.882;2023-05-23T14:35:05;11.20;;;4.97;;
70301;SDS011;57706;56.326;43.882;2023-05-23T14:37:33;12.35;;;4.72;;
70301;SDS011;57706;56.326;43.882;2023-05-23T14:39:59;8.95;;;4.90;;
70301;SDS011;57706;56.326;43.882;2023-05-23T14:42:25;9.25;;;4.70;;
70301;SDS011;57706;56.326;43.882;2023-05-23T14:44:54;13.38;;;6.45;;
70301;SDS011;57706;56.326;43.882;2023-05-23T14:47:20;10.38;;;4.32;;
70301;SDS011;57706;56.326;43.882;2023-05-23T14:49:47;13.85;;;4.55;;
70301;SDS011;57706;56.326;43.882;2023-05-23T14:52:13;12.38;;;3.85;;
70301;SDS011;57706;56.326;43.882;2023-05-23T14:54:39;10.60;;;4.43;;
70301;SDS011;57706;56.326;43.882;2023-05-23T14:57:06;8.45;;;3.97;;
70301;SDS011;57706;56.326;43.882;2023-05-23T14:59:33;7.82;;;4.50;;